createdAt,value
2019-05-10T00:00:26.676Z,41.52
2019-05-10T00:01:09.170Z,41.52
2019-05-10T00:01:51.721Z,41.58
2019-05-10T00:02:34.252Z,41.59
2019-05-10T00:03:16.849Z,41.64
2019-05-10T00:03:59.273Z,41.68
2019-05-10T00:04:41.910Z,41.68
2019-05-10T00:05:24.640Z,41.75
2019-05-10T00:06:07.389Z,41.71
2019-05-10T00:06:50.227Z,41.83
2019-05-10T00:07:33.196Z,41.79
2019-05-10T00:08:15.802Z,41.85
2019-05-10T00:08:45.349Z,41.88
2019-05-10T00:09:09.209Z,41.90
2019-05-10T00:09:33.013Z,41.90
2019-05-10T00:09:56.858Z,41.94
2019-05-10T00:10:20.747Z,42.05
2019-05-10T00:10:47.026Z,42.06
2019-05-10T00:11:25.670Z,42.01
2019-05-10T00:11:51.929Z,41.98
2019-05-10T00:12:33.600Z,41.90
2019-05-10T00:13:02.288Z,41.90
2019-05-10T00:13:27.481Z,41.87
2019-05-10T00:13:56.470Z,41.87
2019-05-10T00:14:28.527Z,41.90
2019-05-10T00:14:54.805Z,41.84
2019-05-10T00:15:21.111Z,41.89
2019-05-10T00:15:45.919Z,41.90
2019-05-10T00:16:11.447Z,41.89
2019-05-10T00:16:36.219Z,41.83
2019-05-10T00:17:02.567Z,41.90
2019-05-10T00:17:27.321Z,41.85
2019-05-10T00:17:52.119Z,41.88
2019-05-10T00:18:16.940Z,41.81
2019-05-10T00:18:41.779Z,41.81
2019-05-10T00:19:06.705Z,41.88
2019-05-10T00:19:31.307Z,41.81
2019-05-10T00:19:56.415Z,41.85
2019-05-10T00:20:21.233Z,41.83
2019-05-10T00:20:46.069Z,41.80
2019-05-10T00:21:10.950Z,41.82
2019-05-10T00:21:35.565Z,41.72
2019-05-10T00:22:00.392Z,41.72
2019-05-10T00:22:25.175Z,41.64
2019-05-10T00:22:49.958Z,41.57
2019-05-10T00:23:14.786Z,41.62
2019-05-10T00:23:39.432Z,41.63
2019-05-10T00:24:04.310Z,41.64
2019-05-10T00:24:29.144Z,41.63
2019-05-10T00:25:03.913Z,41.59
2019-05-10T00:25:20.532Z,41.54
2019-05-10T00:25:45.129Z,41.55
2019-05-10T00:26:09.939Z,41.48
2019-05-10T00:26:34.746Z,41.55
2019-05-10T00:26:59.662Z,41.67
2019-05-10T00:27:24.441Z,41.51
2019-05-10T00:27:49.075Z,41.47
2019-05-10T00:28:14.214Z,41.53
2019-05-10T00:28:39.001Z,41.58
2019-05-10T00:29:03.827Z,41.52
2019-05-10T00:29:28.761Z,41.58
2019-05-10T00:29:53.379Z,41.59
2019-05-10T00:30:18.251Z,41.54
2019-05-10T00:30:43.068Z,41.68
2019-05-10T00:31:07.969Z,41.56
2019-05-10T00:31:33.137Z,41.57
2019-05-10T00:31:57.742Z,41.55
2019-05-10T00:32:22.589Z,41.54
2019-05-10T00:32:47.369Z,41.55
2019-05-10T00:33:12.238Z,41.56
2019-05-10T00:33:37.042Z,41.58
2019-05-10T00:34:01.614Z,41.51
2019-05-10T00:34:26.469Z,41.62
2019-05-10T00:34:51.277Z,41.56
2019-05-10T00:35:16.093Z,41.68
2019-05-10T00:35:40.909Z,41.63
2019-05-10T00:36:05.559Z,41.64
2019-05-10T00:36:30.389Z,41.62
2019-05-10T00:36:55.178Z,41.63
2019-05-10T00:37:20.083Z,41.69
2019-05-10T00:37:44.921Z,41.57
2019-05-10T00:38:09.523Z,41.66
2019-05-10T00:38:34.322Z,41.65
2019-05-10T00:38:59.093Z,41.65
2019-05-10T00:39:23.951Z,41.59
2019-05-10T00:39:48.765Z,41.57
2019-05-10T00:40:14.051Z,41.56
2019-05-10T00:40:38.845Z,41.57
2019-05-10T00:41:03.693Z,41.60
2019-05-10T00:41:28.531Z,41.63
2019-05-10T00:41:53.335Z,41.58
2019-05-10T00:42:17.951Z,41.63
2019-05-10T00:42:42.769Z,41.63
2019-05-10T00:43:07.525Z,41.62
2019-05-10T00:43:32.361Z,41.60
2019-05-10T00:43:57.236Z,41.61
2019-05-10T00:44:21.863Z,41.61
2019-05-10T00:44:46.669Z,41.59
2019-05-10T00:45:11.529Z,41.55
2019-05-10T00:45:36.374Z,41.54
2019-05-10T00:46:01.171Z,41.62
2019-05-10T00:46:25.796Z,41.62
2019-05-10T00:46:50.650Z,41.63
2019-05-10T00:47:15.466Z,41.63
2019-05-10T00:47:40.283Z,41.66
2019-05-10T00:48:05.134Z,41.63
2019-05-10T00:48:29.909Z,41.67
2019-05-10T00:48:54.731Z,41.63
2019-05-10T00:49:19.525Z,41.71
2019-05-10T00:49:44.327Z,41.60
2019-05-10T00:50:09.131Z,41.60
2019-05-10T00:50:33.802Z,41.63
2019-05-10T00:50:58.605Z,41.63
2019-05-10T00:51:23.477Z,41.60
2019-05-10T00:51:48.350Z,41.63
2019-05-10T00:52:13.171Z,41.67
2019-05-10T00:52:37.787Z,41.57
2019-05-10T00:53:02.581Z,41.61
2019-05-10T00:53:27.645Z,41.64
2019-05-10T00:53:52.473Z,41.66
2019-05-10T00:54:17.293Z,41.66
2019-05-10T00:54:41.915Z,41.72
2019-05-10T00:55:18.431Z,41.68
2019-05-10T00:55:33.913Z,41.67
2019-05-10T00:55:58.715Z,41.68
2019-05-10T00:56:23.513Z,41.69
2019-05-10T00:56:48.241Z,41.69
2019-05-10T00:57:13.045Z,41.65
2019-05-10T00:57:37.842Z,41.66
2019-05-10T00:58:02.707Z,41.67
2019-05-10T00:58:27.527Z,41.68
2019-05-10T00:58:52.139Z,41.72
2019-05-10T00:59:16.963Z,41.70
2019-05-10T00:59:41.779Z,41.69
2019-05-10T01:00:10.459Z,41.70
2019-05-10T01:00:35.380Z,41.73
2019-05-10T01:01:00.071Z,41.71
2019-05-10T01:01:24.892Z,41.70
2019-05-10T01:01:49.712Z,41.74
2019-05-10T01:02:14.534Z,41.76
2019-05-10T01:02:39.375Z,41.75
2019-05-10T01:03:04.151Z,41.73
2019-05-10T01:03:28.948Z,41.73
2019-05-10T01:03:53.772Z,41.77
2019-05-10T01:04:18.588Z,41.73
2019-05-10T01:04:43.427Z,41.79
2019-05-10T01:05:08.045Z,41.76
2019-05-10T01:05:32.875Z,41.80
2019-05-10T01:05:57.720Z,41.79
2019-05-10T01:06:22.713Z,41.79
2019-05-10T01:06:47.539Z,41.83
2019-05-10T01:07:12.233Z,41.82
2019-05-10T01:07:37.122Z,41.88
2019-05-10T01:08:01.939Z,41.83
2019-05-10T01:08:27.032Z,41.86
2019-05-10T01:08:51.910Z,41.84
2019-05-10T01:09:16.531Z,41.84
2019-05-10T01:09:41.364Z,41.81
2019-05-10T01:10:09.415Z,41.86
2019-05-10T01:10:34.289Z,41.84
2019-05-10T01:10:59.213Z,41.83
2019-05-10T01:11:24.112Z,41.82
2019-05-10T01:11:48.925Z,41.84
2019-05-10T01:12:14.636Z,41.86
2019-05-10T01:12:39.609Z,41.85
2019-05-10T01:13:04.608Z,41.85
2019-05-10T01:13:29.231Z,41.85
2019-05-10T01:13:54.050Z,41.84
2019-05-10T01:14:18.899Z,41.83
2019-05-10T01:14:43.714Z,41.84
2019-05-10T01:15:08.982Z,41.85
2019-05-10T01:15:33.581Z,41.86
2019-05-10T01:15:58.656Z,41.85
2019-05-10T01:16:23.503Z,41.87
2019-05-10T01:16:48.487Z,41.86
2019-05-10T01:17:13.466Z,41.88
2019-05-10T01:17:38.128Z,41.87
2019-05-10T01:18:02.942Z,41.89
2019-05-10T01:18:28.020Z,41.88
2019-05-10T01:18:52.835Z,41.87
2019-05-10T01:19:17.628Z,41.85
2019-05-10T01:19:42.292Z,41.86
2019-05-10T01:20:07.401Z,41.89
2019-05-10T01:20:32.219Z,41.87
2019-05-10T01:20:57.043Z,41.88
2019-05-10T01:21:21.855Z,41.88
2019-05-10T01:21:46.540Z,41.90
2019-05-10T01:22:12.014Z,41.91
2019-05-10T01:22:36.815Z,41.91
2019-05-10T01:23:01.644Z,41.88
2019-05-10T01:23:26.445Z,41.89
2019-05-10T01:23:51.144Z,41.88
2019-05-10T01:24:17.102Z,41.90
2019-05-10T01:24:41.912Z,41.91
2019-05-10T01:25:07.056Z,41.89
2019-05-10T01:25:35.036Z,41.89
2019-05-10T01:25:58.734Z,41.92
2019-05-10T01:26:23.561Z,41.94
2019-05-10T01:26:48.469Z,41.94
2019-05-10T01:27:13.294Z,41.94
2019-05-10T01:27:38.082Z,41.92
2019-05-10T01:28:02.719Z,41.89
2019-05-10T01:28:27.626Z,41.90
2019-05-10T01:28:52.426Z,41.96
2019-05-10T01:29:17.220Z,41.90
2019-05-10T01:29:42.040Z,41.92
2019-05-10T01:30:06.841Z,41.92
2019-05-10T01:30:31.641Z,41.92
2019-05-10T01:30:56.470Z,41.90
2019-05-10T01:31:21.422Z,41.87
2019-05-10T01:31:46.304Z,41.88
2019-05-10T01:32:11.002Z,41.89
2019-05-10T01:32:35.884Z,41.89
2019-05-10T01:33:00.675Z,41.86
2019-05-10T01:33:25.478Z,41.89
2019-05-10T01:33:50.395Z,41.88
2019-05-10T01:34:15.008Z,41.88
2019-05-10T01:34:39.825Z,41.89
2019-05-10T01:35:06.700Z,41.86
2019-05-10T01:35:31.493Z,41.86
2019-05-10T01:35:56.302Z,41.89
2019-05-10T01:36:21.482Z,41.85
2019-05-10T01:36:46.290Z,41.84
2019-05-10T01:37:11.120Z,41.84
2019-05-10T01:37:35.919Z,41.85
2019-05-10T01:38:00.702Z,41.85
2019-05-10T01:38:25.338Z,41.85
2019-05-10T01:38:50.145Z,41.83
2019-05-10T01:39:14.944Z,41.86
2019-05-10T01:39:39.827Z,41.86
2019-05-10T01:40:08.774Z,41.85
2019-05-10T01:40:33.406Z,41.86
2019-05-10T01:40:59.405Z,41.86
2019-05-10T01:41:24.236Z,41.86
2019-05-10T01:41:49.046Z,41.82
2019-05-10T01:42:14.699Z,41.85
2019-05-10T01:42:40.986Z,41.83
2019-05-10T01:43:05.828Z,41.87
2019-05-10T01:43:30.916Z,41.83
2019-05-10T01:43:55.758Z,41.84
2019-05-10T01:44:20.637Z,41.81
2019-05-10T01:44:45.442Z,41.82
2019-05-10T01:45:10.084Z,41.81
2019-05-10T01:45:34.910Z,41.81
2019-05-10T01:45:59.713Z,41.82
2019-05-10T01:46:24.500Z,41.81
2019-05-10T01:46:49.366Z,41.82
2019-05-10T01:47:14.534Z,41.82
2019-05-10T01:47:39.473Z,41.85
2019-05-10T01:48:04.418Z,41.80
2019-05-10T01:48:29.266Z,41.81
2019-05-10T01:48:54.077Z,41.84
2019-05-10T01:49:18.690Z,41.82
2019-05-10T01:49:43.525Z,41.83
2019-05-10T01:50:08.330Z,41.81
2019-05-10T01:50:33.211Z,41.87
2019-05-10T01:50:58.025Z,41.83
2019-05-10T01:51:22.676Z,41.83
2019-05-10T01:51:47.494Z,41.83
2019-05-10T01:52:12.292Z,41.83
2019-05-10T01:52:37.401Z,41.86
2019-05-10T01:53:02.210Z,41.88
2019-05-10T01:53:26.856Z,41.85
2019-05-10T01:53:51.662Z,41.87
2019-05-10T01:54:16.471Z,41.89
2019-05-10T01:54:41.301Z,41.87
2019-05-10T01:55:07.180Z,41.85
2019-05-10T01:55:32.099Z,41.90
2019-05-10T01:55:56.924Z,41.86
2019-05-10T01:56:21.726Z,41.89
2019-05-10T01:56:46.526Z,41.89
2019-05-10T01:57:11.344Z,41.86
2019-05-10T01:57:36.138Z,41.88
2019-05-10T01:58:00.956Z,41.91
2019-05-10T01:58:25.774Z,41.90
2019-05-10T01:58:50.623Z,41.92
2019-05-10T01:59:15.787Z,41.95
2019-05-10T01:59:40.495Z,41.94
2019-05-10T02:00:08.699Z,41.91
2019-05-10T02:00:33.507Z,41.91
2019-05-10T02:00:58.314Z,41.91
2019-05-10T02:01:23.160Z,41.93
2019-05-10T02:01:48.101Z,41.93
2019-05-10T02:02:12.912Z,41.96
2019-05-10T02:02:37.729Z,41.94
2019-05-10T02:03:02.617Z,41.96
2019-05-10T02:03:27.506Z,41.96
2019-05-10T02:03:52.111Z,41.94
2019-05-10T02:04:17.982Z,41.89
2019-05-10T02:04:43.019Z,41.89
2019-05-10T02:05:07.837Z,41.89
2019-05-10T02:05:32.646Z,41.90
2019-05-10T02:05:57.268Z,41.88
2019-05-10T02:06:22.263Z,41.87
2019-05-10T02:06:47.931Z,41.88
2019-05-10T02:07:13.464Z,41.85
2019-05-10T02:07:38.307Z,41.90
2019-05-10T02:08:02.952Z,41.90
2019-05-10T02:08:27.777Z,41.88
2019-05-10T02:08:52.607Z,41.92
2019-05-10T02:09:17.449Z,41.94
2019-05-10T02:09:42.265Z,41.92
2019-05-10T02:10:07.217Z,41.93
2019-05-10T02:10:32.032Z,41.96
2019-05-10T02:10:56.869Z,41.93
2019-05-10T02:11:21.809Z,41.93
2019-05-10T02:11:46.705Z,41.96
2019-05-10T02:12:11.327Z,41.90
2019-05-10T02:12:36.165Z,41.95
2019-05-10T02:13:01.086Z,41.93
2019-05-10T02:13:25.963Z,41.94
2019-05-10T02:13:50.811Z,41.97
2019-05-10T02:14:15.412Z,41.99
2019-05-10T02:14:40.260Z,41.97
2019-05-10T02:15:07.590Z,41.97
2019-05-10T02:15:32.449Z,41.96
2019-05-10T02:15:57.249Z,41.98
2019-05-10T02:16:21.911Z,41.97
2019-05-10T02:16:46.719Z,41.95
2019-05-10T02:17:11.513Z,41.94
2019-05-10T02:17:36.332Z,41.91
2019-05-10T02:18:01.166Z,41.96
2019-05-10T02:18:25.973Z,41.96
2019-05-10T02:18:50.783Z,41.94
2019-05-10T02:19:15.579Z,41.93
2019-05-10T02:19:40.418Z,41.93
2019-05-10T02:20:07.300Z,41.94
2019-05-10T02:20:31.895Z,41.96
2019-05-10T02:20:56.717Z,42.00
2019-05-10T02:21:21.537Z,41.93
2019-05-10T02:21:46.359Z,41.98
2019-05-10T02:22:11.167Z,41.99
2019-05-10T02:22:35.929Z,41.95
2019-05-10T02:23:00.731Z,41.88
2019-05-10T02:23:25.563Z,41.98
2019-05-10T02:23:50.498Z,41.94
2019-05-10T02:24:15.367Z,41.92
2019-05-10T02:24:39.994Z,41.97
2019-05-10T02:25:05.948Z,42.05
2019-05-10T02:25:30.776Z,41.96
2019-05-10T02:26:08.879Z,41.88
2019-05-10T02:26:22.107Z,41.89
2019-05-10T02:26:46.729Z,41.92
2019-05-10T02:27:11.651Z,42.02
2019-05-10T02:27:36.477Z,41.94
2019-05-10T02:28:01.295Z,42.00
2019-05-10T02:28:26.085Z,42.13
2019-05-10T02:28:50.756Z,42.26
2019-05-10T02:29:15.582Z,42.06
2019-05-10T02:29:40.400Z,42.09
2019-05-10T02:30:06.219Z,42.07
2019-05-10T02:30:31.034Z,42.00
2019-05-10T02:30:55.658Z,42.12
2019-05-10T02:31:21.657Z,42.13
2019-05-10T02:31:47.142Z,42.16
2019-05-10T02:32:11.951Z,42.13
2019-05-10T02:32:36.770Z,41.98
2019-05-10T02:33:01.416Z,41.96
2019-05-10T02:33:26.217Z,42.00
2019-05-10T02:33:51.033Z,42.01
2019-05-10T02:34:15.907Z,42.19
2019-05-10T02:34:40.719Z,41.98
2019-05-10T02:35:07.032Z,42.08
2019-05-10T02:35:31.904Z,42.09
2019-05-10T02:35:56.716Z,41.96
2019-05-10T02:36:21.497Z,42.02
2019-05-10T02:36:46.303Z,41.96
2019-05-10T02:37:10.931Z,42.08
2019-05-10T02:37:35.936Z,42.08
2019-05-10T02:38:00.739Z,42.07
2019-05-10T02:38:25.556Z,42.07
2019-05-10T02:38:50.382Z,42.05
2019-05-10T02:39:14.999Z,42.05
2019-05-10T02:39:39.819Z,42.04
2019-05-10T02:40:05.720Z,42.11
2019-05-10T02:40:30.520Z,42.04
2019-05-10T02:40:55.383Z,42.11
2019-05-10T02:41:20.005Z,42.08
2019-05-10T02:41:44.826Z,42.16
2019-05-10T02:42:09.641Z,42.09
2019-05-10T02:42:34.473Z,42.04
2019-05-10T02:42:59.270Z,42.15
2019-05-10T02:43:23.901Z,42.12
2019-05-10T02:43:48.743Z,42.04
2019-05-10T02:44:13.558Z,42.06
2019-05-10T02:44:38.371Z,42.04
2019-05-10T02:45:04.057Z,42.12
2019-05-10T02:45:28.719Z,42.08
2019-05-10T02:45:53.545Z,42.04
2019-05-10T02:46:18.340Z,41.99
2019-05-10T02:46:43.155Z,42.00
2019-05-10T02:47:07.987Z,42.06
2019-05-10T02:47:32.601Z,42.02
2019-05-10T02:47:57.423Z,42.13
2019-05-10T02:48:22.235Z,42.07
2019-05-10T02:48:47.065Z,42.06
2019-05-10T02:49:11.924Z,42.07
2019-05-10T02:49:36.559Z,42.03
2019-05-10T02:50:01.430Z,42.05
2019-05-10T02:50:26.413Z,42.07
2019-05-10T02:50:51.327Z,42.02
2019-05-10T02:51:16.128Z,42.12
2019-05-10T02:51:40.866Z,42.09
2019-05-10T02:52:05.752Z,42.09
2019-05-10T02:52:30.578Z,42.02
2019-05-10T02:52:55.402Z,42.01
2019-05-10T02:53:20.226Z,42.06
2019-05-10T02:53:44.982Z,41.99
2019-05-10T02:54:09.878Z,42.06
2019-05-10T02:54:34.772Z,42.03
2019-05-10T02:54:59.768Z,42.11
2019-05-10T02:55:24.575Z,42.04
2019-05-10T02:55:49.245Z,42.03
2019-05-10T02:56:29.657Z,42.06
2019-05-10T02:56:41.237Z,42.10
2019-05-10T02:57:06.051Z,42.06
2019-05-10T02:57:31.023Z,42.03
2019-05-10T02:57:55.655Z,42.05
2019-05-10T02:58:20.547Z,42.04
2019-05-10T02:58:45.334Z,42.01
2019-05-10T02:59:10.150Z,42.05
2019-05-10T02:59:35.123Z,42.06
2019-05-10T02:59:59.743Z,42.06
2019-05-10T03:00:24.638Z,42.01
2019-05-10T03:00:50.151Z,42.01
2019-05-10T03:01:15.010Z,42.02
2019-05-10T03:01:39.883Z,42.03
2019-05-10T03:02:06.083Z,42.06
2019-05-10T03:02:30.911Z,42.02
2019-05-10T03:02:55.731Z,41.99
2019-05-10T03:03:20.507Z,42.11
2019-05-10T03:03:45.322Z,42.06
2019-05-10T03:04:10.025Z,42.01
2019-05-10T03:04:36.533Z,41.97
2019-05-10T03:05:01.326Z,42.06
2019-05-10T03:05:28.186Z,42.00
2019-05-10T03:05:53.898Z,42.03
2019-05-10T03:06:18.531Z,42.03
2019-05-10T03:06:43.872Z,41.95
2019-05-10T03:07:08.711Z,41.99
2019-05-10T03:07:36.573Z,42.06
2019-05-10T03:08:01.493Z,42.06
2019-05-10T03:08:26.111Z,42.14
2019-05-10T03:08:51.951Z,42.06
2019-05-10T03:09:16.758Z,42.00
2019-05-10T03:09:41.579Z,42.06
2019-05-10T03:10:09.131Z,41.96
2019-05-10T03:10:33.841Z,42.00
2019-05-10T03:10:59.174Z,42.08
2019-05-10T03:11:24.133Z,42.11
2019-05-10T03:11:49.540Z,42.05
2019-05-10T03:12:23.843Z,42.04
2019-05-10T03:12:48.569Z,41.98
2019-05-10T03:13:15.783Z,42.00
2019-05-10T03:13:40.600Z,42.06
2019-05-10T03:14:12.976Z,42.03
2019-05-10T03:14:43.652Z,42.04
2019-05-10T03:15:08.666Z,42.02
2019-05-10T03:15:37.033Z,42.05
2019-05-10T03:16:04.905Z,42.03
2019-05-10T03:16:29.776Z,42.05
2019-05-10T03:16:54.685Z,42.07
2019-05-10T03:17:19.400Z,42.07
2019-05-10T03:17:44.276Z,42.12
2019-05-10T03:18:09.079Z,42.01
2019-05-10T03:18:34.144Z,42.08
2019-05-10T03:18:58.935Z,42.09
2019-05-10T03:19:23.593Z,42.14
2019-05-10T03:19:49.670Z,42.09
2019-05-10T03:20:14.922Z,42.13
2019-05-10T03:20:39.730Z,42.15
2019-05-10T03:21:04.551Z,42.06
2019-05-10T03:21:30.577Z,42.10
2019-05-10T03:22:06.070Z,42.07
2019-05-10T03:22:30.896Z,42.07
2019-05-10T03:22:55.836Z,42.06
2019-05-10T03:23:20.650Z,42.03
2019-05-10T03:23:45.769Z,42.06
2019-05-10T03:24:10.567Z,42.10
2019-05-10T03:24:35.452Z,42.06
2019-05-10T03:25:00.248Z,42.06
2019-05-10T03:25:25.072Z,42.11
2019-05-10T03:25:49.706Z,42.11
2019-05-10T03:26:14.874Z,42.07
2019-05-10T03:26:50.400Z,42.14
2019-05-10T03:27:06.193Z,42.08
2019-05-10T03:27:31.027Z,42.19
2019-05-10T03:27:55.648Z,42.07
2019-05-10T03:28:20.452Z,42.13
2019-05-10T03:28:45.507Z,42.11
2019-05-10T03:29:10.321Z,42.12
2019-05-10T03:29:35.165Z,42.08
2019-05-10T03:29:59.795Z,42.08
2019-05-10T03:30:24.673Z,42.04
2019-05-10T03:30:49.536Z,42.08
2019-05-10T03:31:15.350Z,42.07
2019-05-10T03:31:40.189Z,42.07
2019-05-10T03:32:04.839Z,42.10
2019-05-10T03:32:29.687Z,42.13
2019-05-10T03:32:54.497Z,42.05
2019-05-10T03:33:19.310Z,42.05
2019-05-10T03:33:44.183Z,42.03
2019-05-10T03:34:08.811Z,42.09
2019-05-10T03:34:33.644Z,42.05
2019-05-10T03:34:58.516Z,41.99
2019-05-10T03:35:23.397Z,42.02
2019-05-10T03:35:48.222Z,42.08
2019-05-10T03:36:12.908Z,41.93
2019-05-10T03:36:37.879Z,41.95
2019-05-10T03:37:02.871Z,42.07
2019-05-10T03:37:27.748Z,42.07
2019-05-10T03:37:52.560Z,42.03
2019-05-10T03:38:17.222Z,41.98
2019-05-10T03:38:42.019Z,41.97
2019-05-10T03:39:07.214Z,42.04
2019-05-10T03:39:32.034Z,42.01
2019-05-10T03:39:56.849Z,42.01
2019-05-10T03:40:21.472Z,42.01
2019-05-10T03:40:46.291Z,41.93
2019-05-10T03:41:11.107Z,41.97
2019-05-10T03:41:35.938Z,42.07
2019-05-10T03:42:00.774Z,42.07
2019-05-10T03:42:25.452Z,42.01
2019-05-10T03:42:50.486Z,42.03
2019-05-10T03:43:15.309Z,41.97
2019-05-10T03:43:40.142Z,41.96
2019-05-10T03:44:05.016Z,41.98
2019-05-10T03:44:29.655Z,41.95
2019-05-10T03:44:54.474Z,41.92
2019-05-10T03:45:20.341Z,42.00
2019-05-10T03:45:45.161Z,41.97
2019-05-10T03:46:10.428Z,41.99
2019-05-10T03:46:35.045Z,42.01
2019-05-10T03:46:59.870Z,42.10
2019-05-10T03:47:24.696Z,41.96
2019-05-10T03:47:49.599Z,41.96
2019-05-10T03:48:14.925Z,41.99
2019-05-10T03:48:39.559Z,41.94
2019-05-10T03:49:04.373Z,42.06
2019-05-10T03:49:29.167Z,42.03
2019-05-10T03:49:54.064Z,42.03
2019-05-10T03:50:18.971Z,42.07
2019-05-10T03:50:44.153Z,42.00
2019-05-10T03:51:08.980Z,42.05
2019-05-10T03:51:33.797Z,42.00
2019-05-10T03:51:58.653Z,42.07
2019-05-10T03:52:23.497Z,41.97
2019-05-10T03:52:52.009Z,42.01
2019-05-10T03:53:15.023Z,41.99
2019-05-10T03:53:39.879Z,41.97
2019-05-10T03:54:04.699Z,41.96
2019-05-10T03:54:29.517Z,41.97
2019-05-10T03:54:54.132Z,41.98
2019-05-10T03:55:18.956Z,41.97
2019-05-10T03:55:43.748Z,41.97
2019-05-10T03:56:08.553Z,41.99
2019-05-10T03:56:33.354Z,41.99
2019-05-10T03:57:11.761Z,41.99
2019-05-10T03:57:24.499Z,41.99
2019-05-10T03:57:49.336Z,42.01
2019-05-10T03:58:14.996Z,42.00
2019-05-10T03:58:39.817Z,41.99
2019-05-10T03:59:04.434Z,42.00
2019-05-10T03:59:29.219Z,42.01
2019-05-10T03:59:54.037Z,42.01
2019-05-10T04:00:47.614Z,41.98
2019-05-10T04:01:12.215Z,41.95
2019-05-10T04:01:37.001Z,41.95
2019-05-10T04:02:01.821Z,41.98
2019-05-10T04:02:26.628Z,41.98
2019-05-10T04:02:51.446Z,41.99
2019-05-10T04:03:16.065Z,42.01
2019-05-10T04:03:40.864Z,41.99
2019-05-10T04:04:09.457Z,41.98
2019-05-10T04:04:32.293Z,41.96
2019-05-10T04:04:57.238Z,41.97
2019-05-10T04:05:21.962Z,41.98
2019-05-10T04:05:46.778Z,41.99
2019-05-10T04:06:11.574Z,41.99
2019-05-10T04:06:36.376Z,42.00
2019-05-10T04:07:01.191Z,42.02
2019-05-10T04:07:25.877Z,42.01
2019-05-10T04:07:50.721Z,42.02
2019-05-10T04:08:15.524Z,42.03
2019-05-10T04:08:40.334Z,42.03
2019-05-10T04:09:06.820Z,42.06
2019-05-10T04:09:31.430Z,42.06
2019-05-10T04:09:56.239Z,42.09
2019-05-10T04:10:21.224Z,42.04
2019-05-10T04:10:46.273Z,42.05
2019-05-10T04:11:11.092Z,42.12
2019-05-10T04:11:35.722Z,42.12
2019-05-10T04:12:00.789Z,42.15
2019-05-10T04:12:25.681Z,42.18
2019-05-10T04:12:50.587Z,42.23
2019-05-10T04:13:15.394Z,42.21
2019-05-10T04:13:40.025Z,42.24
2019-05-10T04:14:05.006Z,42.24
2019-05-10T04:14:29.810Z,42.26
2019-05-10T04:14:54.614Z,42.31
2019-05-10T04:15:19.439Z,42.25
2019-05-10T04:15:44.735Z,42.31
2019-05-10T04:16:09.627Z,42.34
2019-05-10T04:16:34.465Z,42.35
2019-05-10T04:16:59.320Z,42.31
2019-05-10T04:17:24.112Z,42.34
2019-05-10T04:17:50.262Z,42.40
2019-05-10T04:18:15.655Z,42.37
2019-05-10T04:18:40.478Z,42.38
2019-05-10T04:19:05.316Z,42.28
2019-05-10T04:19:30.178Z,42.27
2019-05-10T04:19:54.807Z,42.20
2019-05-10T04:20:19.627Z,42.28
2019-05-10T04:20:44.556Z,42.35
2019-05-10T04:21:09.372Z,42.27
2019-05-10T04:21:34.174Z,42.23
2019-05-10T04:21:58.827Z,42.23
2019-05-10T04:22:23.738Z,42.23
2019-05-10T04:22:48.524Z,42.24
2019-05-10T04:23:14.330Z,42.15
2019-05-10T04:23:39.127Z,42.10
2019-05-10T04:24:03.737Z,42.08
2019-05-10T04:24:28.948Z,42.08
2019-05-10T04:24:53.742Z,42.08
2019-05-10T04:25:18.540Z,42.16
2019-05-10T04:25:43.354Z,42.15
2019-05-10T04:26:07.967Z,42.06
2019-05-10T04:26:32.770Z,42.08
2019-05-10T04:26:57.589Z,41.97
2019-05-10T04:27:32.169Z,42.01
2019-05-10T04:27:49.255Z,41.97
2019-05-10T04:28:14.090Z,42.05
2019-05-10T04:28:38.976Z,42.02
2019-05-10T04:29:03.844Z,41.99
2019-05-10T04:29:28.666Z,41.99
2019-05-10T04:29:53.466Z,41.95
2019-05-10T04:30:18.174Z,41.98
2019-05-10T04:30:42.981Z,41.96
2019-05-10T04:31:07.898Z,42.01
2019-05-10T04:31:32.712Z,41.89
2019-05-10T04:31:57.537Z,41.92
2019-05-10T04:32:22.175Z,41.83
2019-05-10T04:32:47.045Z,41.86
2019-05-10T04:33:11.850Z,41.86
2019-05-10T04:33:36.696Z,41.81
2019-05-10T04:34:01.491Z,41.87
2019-05-10T04:34:26.108Z,41.78
2019-05-10T04:34:50.951Z,41.87
2019-05-10T04:35:16.046Z,41.77
2019-05-10T04:35:40.937Z,41.76
2019-05-10T04:36:05.719Z,41.81
2019-05-10T04:36:30.371Z,41.76
2019-05-10T04:36:55.195Z,41.75
2019-05-10T04:37:20.051Z,41.79
2019-05-10T04:37:44.843Z,41.74
2019-05-10T04:38:09.631Z,41.71
2019-05-10T04:38:34.313Z,41.82
2019-05-10T04:38:59.113Z,41.77
2019-05-10T04:39:23.915Z,41.64
2019-05-10T04:39:48.722Z,41.74
2019-05-10T04:40:14.259Z,41.79
2019-05-10T04:40:38.880Z,41.73
2019-05-10T04:41:03.761Z,41.63
2019-05-10T04:41:28.567Z,41.66
2019-05-10T04:41:53.405Z,41.60
2019-05-10T04:42:18.197Z,41.57
2019-05-10T04:42:42.845Z,41.63
2019-05-10T04:43:07.633Z,41.64
2019-05-10T04:43:32.431Z,41.65
2019-05-10T04:43:57.276Z,41.68
2019-05-10T04:44:22.092Z,41.64
2019-05-10T04:44:46.708Z,41.67
2019-05-10T04:45:11.533Z,41.57
2019-05-10T04:45:36.334Z,41.66
2019-05-10T04:46:01.185Z,41.64
2019-05-10T04:46:26.172Z,41.67
2019-05-10T04:46:50.778Z,41.64
2019-05-10T04:47:15.582Z,41.66
2019-05-10T04:47:40.412Z,41.54
2019-05-10T04:48:05.265Z,41.61
2019-05-10T04:48:30.065Z,41.62
2019-05-10T04:48:54.711Z,41.60
2019-05-10T04:49:19.552Z,41.59
2019-05-10T04:49:44.376Z,41.57
2019-05-10T04:50:09.332Z,41.61
2019-05-10T04:50:34.130Z,41.55
2019-05-10T04:50:58.791Z,41.57
2019-05-10T04:51:23.601Z,41.55
2019-05-10T04:51:48.513Z,41.53
2019-05-10T04:52:14.345Z,41.59
2019-05-10T04:52:39.143Z,41.49
2019-05-10T04:53:03.807Z,41.50
2019-05-10T04:53:28.605Z,41.44
2019-05-10T04:53:53.413Z,41.43
2019-05-10T04:54:18.233Z,41.35
2019-05-10T04:54:43.218Z,41.42
2019-05-10T04:55:07.857Z,41.45
2019-05-10T04:55:32.646Z,41.46
2019-05-10T04:55:57.458Z,41.45
2019-05-10T04:56:22.276Z,41.48
2019-05-10T04:56:47.089Z,41.44
2019-05-10T04:57:11.691Z,41.45
2019-05-10T04:57:50.073Z,41.44
2019-05-10T04:58:03.029Z,41.43
2019-05-10T04:58:27.833Z,41.31
2019-05-10T04:58:52.647Z,41.32
2019-05-10T04:59:17.298Z,41.21
2019-05-10T04:59:42.200Z,41.29
2019-05-10T05:00:08.669Z,41.21
2019-05-10T05:00:33.483Z,41.29
2019-05-10T05:00:58.290Z,41.20
2019-05-10T05:01:22.991Z,41.19
2019-05-10T05:01:47.805Z,41.18
2019-05-10T05:02:12.629Z,41.20
2019-05-10T05:02:37.449Z,41.12
2019-05-10T05:03:02.316Z,41.12
2019-05-10T05:03:26.926Z,41.16
2019-05-10T05:03:51.880Z,41.24
2019-05-10T05:04:16.706Z,41.18
2019-05-10T05:04:41.506Z,41.18
2019-05-10T05:05:06.919Z,41.14
2019-05-10T05:05:31.545Z,41.12
2019-05-10T05:05:56.352Z,41.19
2019-05-10T05:06:21.166Z,41.16
2019-05-10T05:06:45.995Z,41.13
2019-05-10T05:07:10.915Z,41.12
2019-05-10T05:07:35.540Z,41.14
2019-05-10T05:08:00.326Z,41.14
2019-05-10T05:08:25.212Z,41.12
2019-05-10T05:08:50.090Z,41.14
2019-05-10T05:09:14.960Z,41.13
2019-05-10T05:09:39.622Z,41.19
2019-05-10T05:10:06.978Z,41.21
2019-05-10T05:10:31.847Z,41.25
2019-05-10T05:10:56.646Z,41.24
2019-05-10T05:11:21.504Z,41.21
2019-05-10T05:11:46.159Z,41.24
2019-05-10T05:12:10.974Z,41.19
2019-05-10T05:12:35.778Z,41.26
2019-05-10T05:13:00.646Z,41.22
2019-05-10T05:13:25.456Z,41.21
2019-05-10T05:13:50.146Z,41.25
2019-05-10T05:14:14.951Z,41.32
2019-05-10T05:14:39.745Z,41.31
2019-05-10T05:15:08.974Z,41.31
2019-05-10T05:15:33.856Z,41.29
2019-05-10T05:15:58.527Z,41.31
2019-05-10T05:16:23.317Z,41.21
2019-05-10T05:16:48.147Z,41.19
2019-05-10T05:17:12.976Z,41.23
2019-05-10T05:17:37.855Z,41.27
2019-05-10T05:18:02.489Z,41.22
2019-05-10T05:18:27.364Z,41.34
2019-05-10T05:18:52.190Z,41.25
2019-05-10T05:19:17.007Z,41.32
2019-05-10T05:19:41.814Z,41.32
2019-05-10T05:20:06.445Z,41.36
2019-05-10T05:20:31.269Z,41.31
2019-05-10T05:20:56.107Z,41.26
2019-05-10T05:21:20.913Z,41.28
2019-05-10T05:21:45.787Z,41.33
2019-05-10T05:22:10.404Z,41.27
2019-05-10T05:22:35.208Z,41.30
2019-05-10T05:22:59.982Z,41.30
2019-05-10T05:23:24.812Z,41.31
2019-05-10T05:23:49.643Z,41.30
2019-05-10T05:24:17.184Z,41.32
2019-05-10T05:24:40.863Z,41.36
2019-05-10T05:25:07.183Z,41.36
2019-05-10T05:25:35.256Z,41.36
2019-05-10T05:25:58.530Z,41.24
2019-05-10T05:26:23.152Z,41.37
2019-05-10T05:26:47.961Z,41.45